sensor_id;sensor_type;location;lat;lon;timestamp;P1;durP1;ratioP1;P2;durP2;ratioP2
42964;SDS011;28604;51.204;22.552;2023-02-28T00:00:22;54.50;;;19.58;;
42964;SDS011;28604;51.204;22.552;2023-02-28T00:03:08;56.00;;;19.48;;
42964;SDS011;28604;51.204;22.552;2023-02-28T00:05:34;55.50;;;18.65;;
42964;SDS011;28604;51.204;22.552;2023-02-28T00:08:00;55.25;;;20.63;;
42964;SDS011;28604;51.204;22.552;2023-02-28T00:10:27;59.30;;;18.92;;
42964;SDS011;28604;51.204;22.552;2023-02-28T00:12:56;63.78;;;20.67;;
42964;SDS011;28604;51.204;22.552;2023-02-28T00:15:25;63.70;;;21.42;;
42964;SDS011;28604;51.204;22.552;2023-02-28T00:17:52;56.65;;;19.25;;
42964;SDS011;28604;51.204;22.552;2023-02-28T00:20:18;68.85;;;21.55;;
42964;SDS011;28604;51.204;22.552;2023-02-28T00:22:45;58.92;;;20.17;;
42964;SDS011;28604;51.204;22.552;2023-02-28T00:25:15;63.65;;;20.58;;
42964;SDS011;28604;51.204;22.552;2023-02-28T00:27:43;62.40;;;19.95;;
42964;SDS011;28604;51.204;22.552;2023-02-28T00:30:11;75.22;;;22.85;;
42964;SDS011;28604;51.204;22.552;2023-02-28T00:32:40;80.80;;;24.13;;
42964;SDS011;28604;51.204;22.552;2023-02-28T00:35:06;85.88;;;22.10;;
42964;SDS011;28604;51.204;22.552;2023-02-28T00:37:33;80.72;;;23.27;;
42964;SDS011;28604;51.204;22.552;2023-02-28T00:39:59;86.07;;;24.65;;
42964;SDS011;28604;51.204;22.552;2023-02-28T00:42:26;77.50;;;25.50;;
42964;SDS011;28604;51.204;22.552;2023-02-28T00:44:52;82.95;;;24.52;;
42964;SDS011;28604;51.204;22.552;2023-02-28T00:47:18;80.35;;;23.60;;
42964;SDS011;28604;51.204;22.552;2023-02-28T00:49:44;66.78;;;20.92;;
42964;SDS011;28604;51.204;22.552;2023-02-28T00:52:10;78.90;;;22.55;;
42964;SDS011;28604;51.204;22.552;2023-02-28T00:54:36;62.40;;;20.48;;
42964;SDS011;28604;51.204;22.552;2023-02-28T00:57:01;70.78;;;21.85;;
42964;SDS011;28604;51.204;22.552;2023-02-28T00:59:28;65.57;;;21.17;;
42964;SDS011;28604;51.204;22.552;2023-02-28T01:01:53;73.63;;;22.00;;
42964;SDS011;28604;51.204;22.552;2023-02-28T01:04:21;76.63;;;22.55;;
42964;SDS011;28604;51.204;22.552;2023-02-28T01:06:47;61.35;;;20.30;;
42964;SDS011;28604;51.204;22.552;2023-02-28T01:09:13;66.57;;;19.75;;
42964;SDS011;28604;51.204;22.552;2023-02-28T01:11:41;64.25;;;20.15;;
42964;SDS011;28604;51.204;22.552;2023-02-28T01:14:13;62.72;;;21.30;;
42964;SDS011;28604;51.204;22.552;2023-02-28T01:16:40;55.28;;;19.20;;
42964;SDS011;28604;51.204;22.552;2023-02-28T01:19:09;67.15;;;21.15;;
42964;SDS011;28604;51.204;22.552;2023-02-28T01:21:37;63.08;;;20.08;;
42964;SDS011;28604;51.204;22.552;2023-02-28T01:24:04;65.85;;;21.80;;
42964;SDS011;28604;51.204;22.552;2023-02-28T01:26:31;47.03;;;17.70;;
42964;SDS011;28604;51.204;22.552;2023-02-28T01:28:57;54.80;;;17.80;;
42964;SDS011;28604;51.204;22.552;2023-02-28T01:31:24;51.35;;;19.13;;
42964;SDS011;28604;51.204;22.552;2023-02-28T01:33:51;51.78;;;19.38;;
42964;SDS011;28604;51.204;22.552;2023-02-28T01:36:18;54.42;;;18.13;;
42964;SDS011;28604;51.204;22.552;2023-02-28T01:38:46;59.08;;;19.50;;
42964;SDS011;28604;51.204;22.552;2023-02-28T01:41:31;56.75;;;18.10;;
42964;SDS011;28604;51.204;22.552;2023-02-28T01:46:31;59.90;;;19.25;;
42964;SDS011;28604;51.204;22.552;2023-02-28T01:54:22;43.90;;;15.27;;
42964;SDS011;28604;51.204;22.552;2023-02-28T01:56:58;46.63;;;14.77;;
42964;SDS011;28604;51.204;22.552;2023-02-28T01:59:38;47.30;;;15.17;;
42964;SDS011;28604;51.204;22.552;2023-02-28T02:02:18;44.78;;;17.05;;
42964;SDS011;28604;51.204;22.552;2023-02-28T02:07:18;44.67;;;14.55;;
42964;SDS011;28604;51.204;22.552;2023-02-28T02:09:45;51.42;;;15.05;;
42964;SDS011;28604;51.204;22.552;2023-02-28T02:12:23;46.72;;;15.70;;
42964;SDS011;28604;51.204;22.552;2023-02-28T02:17:38;50.42;;;16.08;;
42964;SDS011;28604;51.204;22.552;2023-02-28T02:23:07;46.92;;;16.25;;
42964;SDS011;28604;51.204;22.552;2023-02-28T02:31:56;49.80;;;16.42;;
42964;SDS011;28604;51.204;22.552;2023-02-28T02:39:52;54.60;;;18.77;;
42964;SDS011;28604;51.204;22.552;2023-02-28T02:42:52;46.90;;;16.63;;
42964;SDS011;28604;51.204;22.552;2023-02-28T02:45:42;55.75;;;18.50;;
42964;SDS011;28604;51.204;22.552;2023-02-28T02:48:18;54.60;;;18.45;;
42964;SDS011;28604;51.204;22.552;2023-02-28T02:50:49;50.33;;;16.80;;
42964;SDS011;28604;51.204;22.552;2023-02-28T02:53:18;48.10;;;16.25;;
42964;SDS011;28604;51.204;22.552;2023-02-28T02:55:50;45.60;;;16.63;;
42964;SDS011;28604;51.204;22.552;2023-02-28T02:58:23;54.90;;;17.27;;
42964;SDS011;28604;51.204;22.552;2023-02-28T03:00:53;47.35;;;16.35;;
42964;SDS011;28604;51.204;22.552;2023-02-28T03:03:22;49.67;;;18.20;;
42964;SDS011;28604;51.204;22.552;2023-02-28T03:08:22;46.60;;;15.35;;
42964;SDS011;28604;51.204;22.552;2023-02-28T03:10:48;51.47;;;16.05;;
42964;SDS011;28604;51.204;22.552;2023-02-28T03:18:50;61.47;;;21.83;;
42964;SDS011;28604;51.204;22.552;2023-02-28T03:26:55;62.20;;;21.58;;
42964;SDS011;28604;51.204;22.552;2023-02-28T03:29:37;57.88;;;20.25;;
42964;SDS011;28604;51.204;22.552;2023-02-28T03:32:16;55.92;;;18.77;;
42964;SDS011;28604;51.204;22.552;2023-02-28T03:34:59;59.20;;;20.67;;
42964;SDS011;28604;51.204;22.552;2023-02-28T03:37:34;56.40;;;19.70;;
42964;SDS011;28604;51.204;22.552;2023-02-28T03:40:13;58.55;;;19.80;;
42964;SDS011;28604;51.204;22.552;2023-02-28T03:42:43;56.42;;;18.85;;
42964;SDS011;28604;51.204;22.552;2023-02-28T03:45:15;64.27;;;22.53;;
42964;SDS011;28604;51.204;22.552;2023-02-28T03:47:49;54.00;;;19.02;;
42964;SDS011;28604;51.204;22.552;2023-02-28T03:50:35;57.25;;;21.42;;
42964;SDS011;28604;51.204;22.552;2023-02-28T03:53:06;52.42;;;18.02;;
42964;SDS011;28604;51.204;22.552;2023-02-28T03:55:45;59.63;;;20.15;;
42964;SDS011;28604;51.204;22.552;2023-02-28T04:01:31;48.78;;;18.95;;
42964;SDS011;28604;51.204;22.552;2023-02-28T04:04:04;61.13;;;19.75;;
42964;SDS011;28604;51.204;22.552;2023-02-28T04:06:31;59.17;;;21.40;;
42964;SDS011;28604;51.204;22.552;2023-02-28T04:08:58;57.72;;;22.17;;
42964;SDS011;28604;51.204;22.552;2023-02-28T04:14:17;65.97;;;20.85;;
42964;SDS011;28604;51.204;22.552;2023-02-28T04:16:44;58.78;;;19.45;;
42964;SDS011;28604;51.204;22.552;2023-02-28T04:19:11;60.30;;;18.27;;
42964;SDS011;28604;51.204;22.552;2023-02-28T04:21:39;53.03;;;20.70;;
42964;SDS011;28604;51.204;22.552;2023-02-28T04:24:08;49.63;;;18.73;;
42964;SDS011;28604;51.204;22.552;2023-02-28T04:26:40;51.10;;;17.95;;
42964;SDS011;28604;51.204;22.552;2023-02-28T04:29:10;53.58;;;19.60;;
42964;SDS011;28604;51.204;22.552;2023-02-28T04:31:38;53.33;;;16.73;;
42964;SDS011;28604;51.204;22.552;2023-02-28T04:34:04;51.75;;;17.85;;
42964;SDS011;28604;51.204;22.552;2023-02-28T04:36:30;40.78;;;17.58;;
42964;SDS011;28604;51.204;22.552;2023-02-28T04:38:56;49.95;;;19.08;;
42964;SDS011;28604;51.204;22.552;2023-02-28T04:41:22;53.40;;;18.23;;
42964;SDS011;28604;51.204;22.552;2023-02-28T04:43:49;51.55;;;18.35;;
42964;SDS011;28604;51.204;22.552;2023-02-28T04:46:17;51.47;;;19.42;;
42964;SDS011;28604;51.204;22.552;2023-02-28T04:48:43;62.35;;;19.70;;
42964;SDS011;28604;51.204;22.552;2023-02-28T04:51:11;59.03;;;22.77;;
42964;SDS011;28604;51.204;22.552;2023-02-28T04:53:38;57.83;;;20.35;;
42964;SDS011;28604;51.204;22.552;2023-02-28T04:56:06;46.72;;;17.45;;
42964;SDS011;28604;51.204;22.552;2023-02-28T04:58:32;51.70;;;18.17;;
42964;SDS011;28604;51.204;22.552;2023-02-28T05:01:06;47.72;;;17.02;;
42964;SDS011;28604;51.204;22.552;2023-02-28T05:03:42;41.15;;;14.73;;
42964;SDS011;28604;51.204;22.552;2023-02-28T05:06:08;40.95;;;14.70;;
42964;SDS011;28604;51.204;22.552;2023-02-28T05:08:35;36.65;;;14.30;;
42964;SDS011;28604;51.204;22.552;2023-02-28T05:11:01;35.15;;;13.70;;
42964;SDS011;28604;51.204;22.552;2023-02-28T05:13:28;42.38;;;14.90;;
42964;SDS011;28604;51.204;22.552;2023-02-28T05:15:54;41.45;;;16.50;;
42964;SDS011;28604;51.204;22.552;2023-02-28T05:18:20;44.65;;;17.13;;
42964;SDS011;28604;51.204;22.552;2023-02-28T05:20:47;35.75;;;14.73;;
42964;SDS011;28604;51.204;22.552;2023-02-28T05:23:13;34.33;;;14.75;;
42964;SDS011;28604;51.204;22.552;2023-02-28T05:25:40;45.22;;;18.02;;
42964;SDS011;28604;51.204;22.552;2023-02-28T05:28:07;44.47;;;17.40;;
42964;SDS011;28604;51.204;22.552;2023-02-28T05:30:33;43.38;;;15.95;;
42964;SDS011;28604;51.204;22.552;2023-02-28T05:32:59;42.60;;;16.42;;
42964;SDS011;28604;51.204;22.552;2023-02-28T05:35:25;49.80;;;19.10;;
42964;SDS011;28604;51.204;22.552;2023-02-28T05:37:51;45.63;;;18.60;;
42964;SDS011;28604;51.204;22.552;2023-02-28T05:40:17;49.35;;;18.85;;
42964;SDS011;28604;51.204;22.552;2023-02-28T05:42:45;54.25;;;19.70;;
42964;SDS011;28604;51.204;22.552;2023-02-28T05:45:12;54.22;;;20.85;;
42964;SDS011;28604;51.204;22.552;2023-02-28T05:47:38;67.05;;;22.60;;
42964;SDS011;28604;51.204;22.552;2023-02-28T05:50:05;63.90;;;24.60;;
42964;SDS011;28604;51.204;22.552;2023-02-28T05:52:31;71.43;;;25.60;;
42964;SDS011;28604;51.204;22.552;2023-02-28T05:54:57;76.22;;;24.88;;
42964;SDS011;28604;51.204;22.552;2023-02-28T05:57:23;77.85;;;26.98;;
42964;SDS011;28604;51.204;22.552;2023-02-28T05:59:49;94.60;;;32.35;;
42964;SDS011;28604;51.204;22.552;2023-02-28T06:02:16;82.32;;;27.90;;
42964;SDS011;28604;51.204;22.552;2023-02-28T06:04:43;85.07;;;31.42;;
42964;SDS011;28604;51.204;22.552;2023-02-28T06:07:09;86.55;;;31.48;;
42964;SDS011;28604;51.204;22.552;2023-02-28T06:09:35;102.80;;;35.45;;
42964;SDS011;28604;51.204;22.552;2023-02-28T06:12:02;90.78;;;32.97;;
42964;SDS011;28604;51.204;22.552;2023-02-28T06:14:31;84.05;;;31.38;;
42964;SDS011;28604;51.204;22.552;2023-02-28T06:16:58;76.28;;;29.52;;
42964;SDS011;28604;51.204;22.552;2023-02-28T06:19:25;78.80;;;27.98;;
42964;SDS011;28604;51.204;22.552;2023-02-28T06:21:52;84.22;;;28.38;;
42964;SDS011;28604;51.204;22.552;2023-02-28T06:24:20;65.53;;;25.15;;
42964;SDS011;28604;51.204;22.552;2023-02-28T06:26:47;68.32;;;27.35;;
42964;SDS011;28604;51.204;22.552;2023-02-28T06:29:13;60.00;;;21.60;;
42964;SDS011;28604;51.204;22.552;2023-02-28T06:31:42;57.47;;;22.90;;
42964;SDS011;28604;51.204;22.552;2023-02-28T06:34:09;47.08;;;20.05;;
42964;SDS011;28604;51.204;22.552;2023-02-28T06:36:37;49.15;;;19.50;;
42964;SDS011;28604;51.204;22.552;2023-02-28T06:39:04;39.58;;;15.68;;
42964;SDS011;28604;51.204;22.552;2023-02-28T06:41:30;30.58;;;13.98;;
42964;SDS011;28604;51.204;22.552;2023-02-28T06:43:56;31.27;;;13.02;;
42964;SDS011;28604;51.204;22.552;2023-02-28T06:46:22;41.88;;;15.13;;
42964;SDS011;28604;51.204;22.552;2023-02-28T06:48:48;37.95;;;16.88;;
42964;SDS011;28604;51.204;22.552;2023-02-28T06:51:18;41.90;;;16.63;;
42964;SDS011;28604;51.204;22.552;2023-02-28T06:53:47;48.67;;;18.83;;
42964;SDS011;28604;51.204;22.552;2023-02-28T06:56:14;75.03;;;27.13;;
42964;SDS011;28604;51.204;22.552;2023-02-28T06:58:42;76.15;;;29.83;;
42964;SDS011;28604;51.204;22.552;2023-02-28T07:01:13;88.18;;;31.80;;
42964;SDS011;28604;51.204;22.552;2023-02-28T07:03:39;88.03;;;34.67;;
42964;SDS011;28604;51.204;22.552;2023-02-28T07:06:05;79.32;;;31.77;;
42964;SDS011;28604;51.204;22.552;2023-02-28T07:08:33;76.88;;;30.08;;
42964;SDS011;28604;51.204;22.552;2023-02-28T07:10:59;67.10;;;26.65;;
42964;SDS011;28604;51.204;22.552;2023-02-28T07:13:25;50.10;;;22.42;;
42964;SDS011;28604;51.204;22.552;2023-02-28T07:16:02;38.05;;;16.73;;
42964;SDS011;28604;51.204;22.552;2023-02-28T07:18:30;40.00;;;14.40;;
42964;SDS011;28604;51.204;22.552;2023-02-28T07:20:56;31.88;;;12.70;;
42964;SDS011;28604;51.204;22.552;2023-02-28T07:23:23;29.90;;;11.57;;
42964;SDS011;28604;51.204;22.552;2023-02-28T07:25:49;22.83;;;10.75;;
42964;SDS011;28604;51.204;22.552;2023-02-28T07:28:16;18.13;;;9.73;;
42964;SDS011;28604;51.204;22.552;2023-02-28T07:30:42;22.00;;;8.75;;
42964;SDS011;28604;51.204;22.552;2023-02-28T07:33:08;23.80;;;8.35;;
42964;SDS011;28604;51.204;22.552;2023-02-28T07:35:34;19.00;;;7.55;;
42964;SDS011;28604;51.204;22.552;2023-02-28T07:38:00;15.05;;;6.90;;
42964;SDS011;28604;51.204;22.552;2023-02-28T07:40:28;11.13;;;6.15;;
42964;SDS011;28604;51.204;22.552;2023-02-28T07:42:54;16.67;;;5.68;;
42964;SDS011;28604;51.204;22.552;2023-02-28T07:45:20;11.02;;;6.20;;
42964;SDS011;28604;51.204;22.552;2023-02-28T07:47:46;11.27;;;6.60;;
42964;SDS011;28604;51.204;22.552;2023-02-28T07:50:13;11.68;;;6.05;;
42964;SDS011;28604;51.204;22.552;2023-02-28T07:52:41;20.27;;;7.65;;
42964;SDS011;28604;51.204;22.552;2023-02-28T07:55:07;15.68;;;9.60;;
42964;SDS011;28604;51.204;22.552;2023-02-28T07:57:35;18.55;;;8.98;;
42964;SDS011;28604;51.204;22.552;2023-02-28T08:00:03;21.42;;;10.68;;
42964;SDS011;28604;51.204;22.552;2023-02-28T08:02:37;19.13;;;10.00;;
42964;SDS011;28604;51.204;22.552;2023-02-28T08:05:03;12.15;;;8.10;;
42964;SDS011;28604;51.204;22.552;2023-02-28T08:07:29;20.40;;;8.90;;
42964;SDS011;28604;51.204;22.552;2023-02-28T08:09:55;18.33;;;8.50;;
42964;SDS011;28604;51.204;22.552;2023-02-28T08:12:21;13.60;;;7.65;;
42964;SDS011;28604;51.204;22.552;2023-02-28T08:14:47;14.10;;;6.75;;
42964;SDS011;28604;51.204;22.552;2023-02-28T08:17:13;10.38;;;7.28;;
42964;SDS011;28604;51.204;22.552;2023-02-28T08:19:39;11.15;;;6.85;;
42964;SDS011;28604;51.204;22.552;2023-02-28T08:22:05;12.48;;;8.07;;
42964;SDS011;28604;51.204;22.552;2023-02-28T08:24:31;13.27;;;7.20;;
42964;SDS011;28604;51.204;22.552;2023-02-28T08:26:57;12.23;;;7.15;;
42964;SDS011;28604;51.204;22.552;2023-02-28T08:29:23;12.75;;;6.63;;
42964;SDS011;28604;51.204;22.552;2023-02-28T08:31:49;9.90;;;6.40;;
42964;SDS011;28604;51.204;22.552;2023-02-28T08:34:15;14.20;;;6.82;;
42964;SDS011;28604;51.204;22.552;2023-02-28T08:36:42;10.98;;;6.28;;
42964;SDS011;28604;51.204;22.552;2023-02-28T08:39:10;10.77;;;6.03;;
42964;SDS011;28604;51.204;22.552;2023-02-28T08:41:36;8.98;;;6.15;;
42964;SDS011;28604;51.204;22.552;2023-02-28T08:44:02;9.48;;;5.95;;
42964;SDS011;28604;51.204;22.552;2023-02-28T08:46:29;9.27;;;5.32;;
42964;SDS011;28604;51.204;22.552;2023-02-28T08:48:55;5.60;;;3.90;;
42964;SDS011;28604;51.204;22.552;2023-02-28T08:51:25;7.03;;;5.15;;
42964;SDS011;28604;51.204;22.552;2023-02-28T08:53:55;8.90;;;6.03;;
42964;SDS011;28604;51.204;22.552;2023-02-28T08:56:23;8.15;;;5.05;;
42964;SDS011;28604;51.204;22.552;2023-02-28T08:58:49;8.38;;;4.65;;
42964;SDS011;28604;51.204;22.552;2023-02-28T09:01:17;11.20;;;5.63;;
42964;SDS011;28604;51.204;22.552;2023-02-28T09:03:44;14.95;;;6.03;;
42964;SDS011;28604;51.204;22.552;2023-02-28T09:06:12;7.00;;;5.53;;
42964;SDS011;28604;51.204;22.552;2023-02-28T09:08:40;6.30;;;5.55;;
42964;SDS011;28604;51.204;22.552;2023-02-28T09:11:07;8.25;;;5.68;;
42964;SDS011;28604;51.204;22.552;2023-02-28T09:13:33;9.98;;;5.38;;
42964;SDS011;28604;51.204;22.552;2023-02-28T09:16:00;7.38;;;5.65;;
42964;SDS011;28604;51.204;22.552;2023-02-28T09:18:28;9.30;;;6.28;;
42964;SDS011;28604;51.204;22.552;2023-02-28T09:20:55;9.15;;;6.25;;
42964;SDS011;28604;51.204;22.552;2023-02-28T09:23:21;11.80;;;5.80;;
42964;SDS011;28604;51.204;22.552;2023-02-28T09:25:48;10.27;;;6.20;;
42964;SDS011;28604;51.204;22.552;2023-02-28T09:28:18;10.85;;;5.95;;
42964;SDS011;28604;51.204;22.552;2023-02-28T09:30:45;8.45;;;5.32;;
42964;SDS011;28604;51.204;22.552;2023-02-28T09:33:13;6.60;;;4.25;;
42964;SDS011;28604;51.204;22.552;2023-02-28T09:35:42;6.78;;;4.60;;
42964;SDS011;28604;51.204;22.552;2023-02-28T09:38:08;7.28;;;4.22;;
42964;SDS011;28604;51.204;22.552;2023-02-28T09:40:58;8.30;;;5.03;;
42964;SDS011;28604;51.204;22.552;2023-02-28T09:43:25;8.48;;;4.80;;
42964;SDS011;28604;51.204;22.552;2023-02-28T09:45:55;6.18;;;3.88;;
42964;SDS011;28604;51.204;22.552;2023-02-28T09:48:30;8.50;;;4.70;;
42964;SDS011;28604;51.204;22.552;2023-02-28T09:51:12;8.82;;;5.57;;
42964;SDS011;28604;51.204;22.552;2023-02-28T09:53:47;6.13;;;4.43;;
42964;SDS011;28604;51.204;22.552;2023-02-28T09:56:15;6.55;;;4.95;;
42964;SDS011;28604;51.204;22.552;2023-02-28T09:59:12;7.63;;;4.93;;
42964;SDS011;28604;51.204;22.552;2023-02-28T10:10:25;5.55;;;4.68;;
42964;SDS011;28604;51.204;22.552;2023-02-28T10:13:02;6.72;;;5.05;;
42964;SDS011;28604;51.204;22.552;2023-02-28T10:15:32;6.97;;;4.90;;
42964;SDS011;28604;51.204;22.552;2023-02-28T10:18:03;5.25;;;4.72;;
42964;SDS011;28604;51.204;22.552;2023-02-28T10:25:47;6.35;;;4.88;;
42964;SDS011;28604;51.204;22.552;2023-02-28T10:28:19;6.53;;;5.35;;
42964;SDS011;28604;51.204;22.552;2023-02-28T10:30:49;9.90;;;6.05;;
42964;SDS011;28604;51.204;22.552;2023-02-28T10:33:18;7.18;;;5.70;;
42964;SDS011;28604;51.204;22.552;2023-02-28T10:35:47;6.60;;;5.97;;
42964;SDS011;28604;51.204;22.552;2023-02-28T10:38:15;7.45;;;5.75;;
42964;SDS011;28604;51.204;22.552;2023-02-28T10:40:44;8.18;;;6.20;;
42964;SDS011;28604;51.204;22.552;2023-02-28T10:45:40;7.40;;;5.90;;
42964;SDS011;28604;51.204;22.552;2023-02-28T10:51:11;8.13;;;5.15;;
42964;SDS011;28604;51.204;22.552;2023-02-28T11:01:23;10.48;;;6.68;;
42964;SDS011;28604;51.204;22.552;2023-02-28T11:03:51;7.50;;;6.22;;
42964;SDS011;28604;51.204;22.552;2023-02-28T11:06:19;12.32;;;5.82;;
42964;SDS011;28604;51.204;22.552;2023-02-28T11:08:52;10.55;;;6.68;;
42964;SDS011;28604;51.204;22.552;2023-02-28T11:11:20;11.20;;;7.53;;
42964;SDS011;28604;51.204;22.552;2023-02-28T11:13:51;11.57;;;7.75;;
42964;SDS011;28604;51.204;22.552;2023-02-28T11:16:19;13.30;;;8.18;;
42964;SDS011;28604;51.204;22.552;2023-02-28T11:18:50;10.35;;;7.47;;
42964;SDS011;28604;51.204;22.552;2023-02-28T11:21:23;15.90;;;8.50;;
42964;SDS011;28604;51.204;22.552;2023-02-28T11:24:05;9.35;;;8.35;;
42964;SDS011;28604;51.204;22.552;2023-02-28T11:26:48;14.88;;;8.73;;
42964;SDS011;28604;51.204;22.552;2023-02-28T11:32:03;11.32;;;8.05;;
42964;SDS011;28604;51.204;22.552;2023-02-28T11:34:42;11.98;;;7.32;;
42964;SDS011;28604;51.204;22.552;2023-02-28T11:37:16;11.75;;;8.13;;
42964;SDS011;28604;51.204;22.552;2023-02-28T11:39:45;14.27;;;8.25;;
42964;SDS011;28604;51.204;22.552;2023-02-28T11:50:13;11.55;;;8.45;;
42964;SDS011;28604;51.204;22.552;2023-02-28T11:53:05;14.75;;;9.35;;
42964;SDS011;28604;51.204;22.552;2023-02-28T11:55:45;12.63;;;8.35;;
42964;SDS011;28604;51.204;22.552;2023-02-28T12:04:12;14.07;;;9.25;;
42964;SDS011;28604;51.204;22.552;2023-02-28T12:20:36;13.80;;;9.07;;
42964;SDS011;28604;51.204;22.552;2023-02-28T12:28:59;13.95;;;9.18;;
42964;SDS011;28604;51.204;22.552;2023-02-28T12:31:36;13.13;;;9.07;;
42964;SDS011;28604;51.204;22.552;2023-02-28T12:34:10;11.43;;;9.23;;
42964;SDS011;28604;51.204;22.552;2023-02-28T12:36:41;14.20;;;9.88;;
42964;SDS011;28604;51.204;22.552;2023-02-28T12:41:42;13.40;;;9.68;;
42964;SDS011;28604;51.204;22.552;2023-02-28T12:44:35;18.30;;;9.70;;
42964;SDS011;28604;51.204;22.552;2023-02-28T12:47:11;17.13;;;9.35;;
42964;SDS011;28604;51.204;22.552;2023-02-28T12:49:53;12.20;;;8.73;;
42964;SDS011;28604;51.204;22.552;2023-02-28T12:52:25;14.45;;;9.18;;
42964;SDS011;28604;51.204;22.552;2023-02-28T12:55:23;14.95;;;9.27;;
42964;SDS011;28604;51.204;22.552;2023-02-28T13:00:47;10.23;;;8.32;;
42964;SDS011;28604;51.204;22.552;2023-02-28T13:09:39;14.90;;;10.32;;
42964;SDS011;28604;51.204;22.552;2023-02-28T13:12:15;14.82;;;9.68;;
42964;SDS011;28604;51.204;22.552;2023-02-28T13:14:41;14.20;;;9.13;;
42964;SDS011;28604;51.204;22.552;2023-02-28T13:19:35;15.20;;;9.15;;
42964;SDS011;28604;51.204;22.552;2023-02-28T13:22:04;13.18;;;9.18;;
42964;SDS011;28604;51.204;22.552;2023-02-28T13:27:24;9.63;;;8.63;;
42964;SDS011;28604;51.204;22.552;2023-02-28T13:36:22;12.57;;;9.57;;
42964;SDS011;28604;51.204;22.552;2023-02-28T13:38:52;13.75;;;9.60;;
42964;SDS011;28604;51.204;22.552;2023-02-28T13:44:00;14.38;;;10.48;;
42964;SDS011;28604;51.204;22.552;2023-02-28T13:49:31;15.95;;;10.82;;
42964;SDS011;28604;51.204;22.552;2023-02-28T14:02:43;16.90;;;11.02;;
42964;SDS011;28604;51.204;22.552;2023-02-28T14:05:33;12.70;;;10.77;;
42964;SDS011;28604;51.204;22.552;2023-02-28T14:08:08;16.00;;;10.40;;
42964;SDS011;28604;51.204;22.552;2023-02-28T14:10:44;12.45;;;10.63;;
42964;SDS011;28604;51.204;22.552;2023-02-28T14:15:57;16.65;;;11.95;;
42964;SDS011;28604;51.204;22.552;2023-02-28T14:18:35;16.25;;;10.85;;
42964;SDS011;28604;51.204;22.552;2023-02-28T14:21:16;20.10;;;11.30;;
42964;SDS011;28604;51.204;22.552;2023-02-28T14:24:09;16.48;;;10.60;;
42964;SDS011;28604;51.204;22.552;2023-02-28T14:32:51;14.10;;;9.90;;
42964;SDS011;28604;51.204;22.552;2023-02-28T14:37:54;11.93;;;9.65;;
42964;SDS011;28604;51.204;22.552;2023-02-28T14:40:31;12.65;;;9.85;;
42964;SDS011;28604;51.204;22.552;2023-02-28T14:43:03;16.98;;;9.80;;
42964;SDS011;28604;51.204;22.552;2023-02-28T14:45:31;16.58;;;10.70;;
42964;SDS011;28604;51.204;22.552;2023-02-28T14:47:59;19.27;;;10.23;;
42964;SDS011;28604;51.204;22.552;2023-02-28T14:50:31;14.93;;;11.05;;
42964;SDS011;28604;51.204;22.552;2023-02-28T14:53:00;14.23;;;10.38;;
42964;SDS011;28604;51.204;22.552;2023-02-28T14:55:28;16.48;;;10.32;;
42964;SDS011;28604;51.204;22.552;2023-02-28T15:00:35;14.85;;;9.57;;
42964;SDS011;28604;51.204;22.552;2023-02-28T15:03:17;14.50;;;9.45;;
42964;SDS011;28604;51.204;22.552;2023-02-28T15:05:52;13.25;;;9.65;;
42964;SDS011;28604;51.204;22.552;2023-02-28T15:08:23;14.40;;;10.45;;
42964;SDS011;28604;51.204;22.552;2023-02-28T15:10:54;17.10;;;11.07;;
42964;SDS011;28604;51.204;22.552;2023-02-28T15:13:23;14.48;;;10.63;;
42964;SDS011;28604;51.204;22.552;2023-02-28T15:16:02;16.40;;;10.38;;
42964;SDS011;28604;51.204;22.552;2023-02-28T15:18:44;21.37;;;12.00;;
42964;SDS011;28604;51.204;22.552;2023-02-28T15:21:18;16.60;;;10.38;;
42964;SDS011;28604;51.204;22.552;2023-02-28T15:23:52;22.08;;;13.45;;
42964;SDS011;28604;51.204;22.552;2023-02-28T15:26:39;18.40;;;12.77;;
42964;SDS011;28604;51.204;22.552;2023-02-28T15:29:20;18.75;;;11.68;;
42964;SDS011;28604;51.204;22.552;2023-02-28T15:31:49;16.50;;;11.48;;
42964;SDS011;28604;51.204;22.552;2023-02-28T15:39:48;19.60;;;13.40;;
42964;SDS011;28604;51.204;22.552;2023-02-28T15:42:21;23.42;;;12.93;;
42964;SDS011;28604;51.204;22.552;2023-02-28T15:44:49;21.95;;;13.75;;
42964;SDS011;28604;51.204;22.552;2023-02-28T15:49:49;23.08;;;13.18;;
42964;SDS011;28604;51.204;22.552;2023-02-28T15:52:24;23.00;;;14.15;;
42964;SDS011;28604;51.204;22.552;2023-02-28T15:55:11;20.20;;;13.02;;
42964;SDS011;28604;51.204;22.552;2023-02-28T15:57:43;22.73;;;14.68;;
42964;SDS011;28604;51.204;22.552;2023-02-28T16:00:16;24.35;;;14.27;;
42964;SDS011;28604;51.204;22.552;2023-02-28T16:02:45;24.58;;;14.43;;
42964;SDS011;28604;51.204;22.552;2023-02-28T16:07:44;33.13;;;17.58;;
42964;SDS011;28604;51.204;22.552;2023-02-28T16:10:11;26.48;;;14.48;;
42964;SDS011;28604;51.204;22.552;2023-02-28T16:12:39;30.27;;;17.02;;
42964;SDS011;28604;51.204;22.552;2023-02-28T16:15:20;27.75;;;16.25;;
42964;SDS011;28604;51.204;22.552;2023-02-28T16:17:46;26.75;;;15.55;;
42964;SDS011;28604;51.204;22.552;2023-02-28T16:20:13;35.42;;;18.02;;
42964;SDS011;28604;51.204;22.552;2023-02-28T16:22:41;32.28;;;17.58;;
42964;SDS011;28604;51.204;22.552;2023-02-28T16:25:14;36.35;;;18.48;;
42964;SDS011;28604;51.204;22.552;2023-02-28T16:27:42;43.72;;;21.13;;
42964;SDS011;28604;51.204;22.552;2023-02-28T16:30:15;39.05;;;20.75;;
42964;SDS011;28604;51.204;22.552;2023-02-28T16:32:50;56.90;;;25.45;;
42964;SDS011;28604;51.204;22.552;2023-02-28T16:35:19;72.50;;;34.03;;
42964;SDS011;28604;51.204;22.552;2023-02-28T16:37:45;121.28;;;54.72;;
42964;SDS011;28604;51.204;22.552;2023-02-28T16:40:22;114.63;;;45.75;;
42964;SDS011;28604;51.204;22.552;2023-02-28T16:42:50;113.93;;;45.97;;
42964;SDS011;28604;51.204;22.552;2023-02-28T16:45:24;101.47;;;44.22;;
42964;SDS011;28604;51.204;22.552;2023-02-28T16:47:51;105.40;;;44.90;;
42964;SDS011;28604;51.204;22.552;2023-02-28T16:50:22;148.82;;;60.22;;
42964;SDS011;28604;51.204;22.552;2023-02-28T16:52:50;174.77;;;63.77;;
42964;SDS011;28604;51.204;22.552;2023-02-28T16:55:20;140.52;;;54.65;;
42964;SDS011;28604;51.204;22.552;2023-02-28T16:57:49;150.27;;;53.58;;
42964;SDS011;28604;51.204;22.552;2023-02-28T17:00:18;120.90;;;45.20;;
42964;SDS011;28604;51.204;22.552;2023-02-28T17:02:44;99.30;;;43.13;;
42964;SDS011;28604;51.204;22.552;2023-02-28T17:05:11;90.50;;;43.08;;
42964;SDS011;28604;51.204;22.552;2023-02-28T17:07:38;85.47;;;38.92;;
42964;SDS011;28604;51.204;22.552;2023-02-28T17:10:12;65.78;;;31.92;;
42964;SDS011;28604;51.204;22.552;2023-02-28T17:12:39;91.50;;;41.45;;
42964;SDS011;28604;51.204;22.552;2023-02-28T17:15:05;92.93;;;41.45;;
42964;SDS011;28604;51.204;22.552;2023-02-28T17:17:32;85.05;;;41.88;;
42964;SDS011;28604;51.204;22.552;2023-02-28T17:19:58;100.85;;;45.13;;
42964;SDS011;28604;51.204;22.552;2023-02-28T17:22:24;112.82;;;48.72;;
42964;SDS011;28604;51.204;22.552;2023-02-28T17:24:51;118.78;;;53.33;;